sensor_id;sensor_type;location;lat;lon;timestamp;P1;durP1;ratioP1;P2;durP2;ratioP2
27979;SDS011;15315;50.836;4.430;2023-11-21T00:03:13;61.25;;;26.30;;
27979;SDS011;15315;50.836;4.430;2023-11-21T00:13:15;59.03;;;27.30;;
27979;SDS011;15315;50.836;4.430;2023-11-21T00:23:15;59.55;;;25.60;;
27979;SDS011;15315;50.836;4.430;2023-11-21T00:33:15;63.95;;;26.50;;
27979;SDS011;15315;50.836;4.430;2023-11-21T00:43:16;63.78;;;25.55;;
27979;SDS011;15315;50.836;4.430;2023-11-21T00:53:16;69.57;;;27.88;;
27979;SDS011;15315;50.836;4.430;2023-11-21T01:03:17;63.70;;;28.30;;
27979;SDS011;15315;50.836;4.430;2023-11-21T01:13:17;62.13;;;27.88;;
27979;SDS011;15315;50.836;4.430;2023-11-21T01:23:18;72.13;;;29.77;;
27979;SDS011;15315;50.836;4.430;2023-11-21T01:33:19;56.33;;;27.33;;
27979;SDS011;15315;50.836;4.430;2023-11-21T01:43:20;55.15;;;26.20;;
27979;SDS011;15315;50.836;4.430;2023-11-21T01:53:20;53.55;;;25.23;;
27979;SDS011;15315;50.836;4.430;2023-11-21T02:03:20;49.35;;;24.45;;
27979;SDS011;15315;50.836;4.430;2023-11-21T02:13:21;44.67;;;23.52;;
27979;SDS011;15315;50.836;4.430;2023-11-21T02:23:21;55.42;;;23.00;;
27979;SDS011;15315;50.836;4.430;2023-11-21T02:33:23;43.20;;;20.98;;
27979;SDS011;15315;50.836;4.430;2023-11-21T02:43:23;39.97;;;20.15;;
27979;SDS011;15315;50.836;4.430;2023-11-21T02:53:24;35.58;;;19.38;;
27979;SDS011;15315;50.836;4.430;2023-11-21T03:03:24;38.83;;;18.17;;
27979;SDS011;15315;50.836;4.430;2023-11-21T03:13:25;46.03;;;19.50;;
27979;SDS011;15315;50.836;4.430;2023-11-21T03:23:25;43.10;;;20.20;;
27979;SDS011;15315;50.836;4.430;2023-11-21T03:33:26;37.55;;;19.25;;
27979;SDS011;15315;50.836;4.430;2023-11-21T03:43:26;43.92;;;19.77;;
27979;SDS011;15315;50.836;4.430;2023-11-21T03:53:27;43.00;;;19.40;;
27979;SDS011;15315;50.836;4.430;2023-11-21T04:03:27;36.50;;;19.05;;
27979;SDS011;15315;50.836;4.430;2023-11-21T04:13:27;42.60;;;19.55;;
27979;SDS011;15315;50.836;4.430;2023-11-21T04:23:28;44.08;;;19.40;;
27979;SDS011;15315;50.836;4.430;2023-11-21T04:33:30;40.78;;;20.42;;
27979;SDS011;15315;50.836;4.430;2023-11-21T04:43:31;49.05;;;21.92;;
27979;SDS011;15315;50.836;4.430;2023-11-21T04:53:32;47.75;;;23.17;;
27979;SDS011;15315;50.836;4.430;2023-11-21T05:03:32;52.35;;;24.52;;
27979;SDS011;15315;50.836;4.430;2023-11-21T05:13:35;54.45;;;25.05;;
27979;SDS011;15315;50.836;4.430;2023-11-21T05:23:36;47.25;;;24.05;;
27979;SDS011;15315;50.836;4.430;2023-11-21T05:33:37;48.15;;;24.40;;
27979;SDS011;15315;50.836;4.430;2023-11-21T05:43:37;45.42;;;23.70;;
27979;SDS011;15315;50.836;4.430;2023-11-21T05:53:38;48.38;;;25.40;;
27979;SDS011;15315;50.836;4.430;2023-11-21T06:03:38;49.08;;;25.90;;
27979;SDS011;15315;50.836;4.430;2023-11-21T06:13:39;46.72;;;24.85;;
27979;SDS011;15315;50.836;4.430;2023-11-21T06:23:40;45.95;;;25.23;;
27979;SDS011;15315;50.836;4.430;2023-11-21T06:33:41;44.58;;;24.48;;
27979;SDS011;15315;50.836;4.430;2023-11-21T06:43:41;54.92;;;29.65;;
27979;SDS011;15315;50.836;4.430;2023-11-21T06:53:46;61.38;;;32.03;;
27979;SDS011;15315;50.836;4.430;2023-11-21T07:03:46;54.80;;;29.88;;
27979;SDS011;15315;50.836;4.430;2023-11-21T07:13:47;55.17;;;27.50;;
27979;SDS011;15315;50.836;4.430;2023-11-21T07:23:47;52.20;;;27.02;;
27979;SDS011;15315;50.836;4.430;2023-11-21T07:33:47;53.00;;;27.38;;
27979;SDS011;15315;50.836;4.430;2023-11-21T07:43:48;46.17;;;24.50;;
27979;SDS011;15315;50.836;4.430;2023-11-21T07:53:49;67.43;;;38.95;;
27979;SDS011;15315;50.836;4.430;2023-11-21T08:03:49;45.95;;;24.50;;
27979;SDS011;15315;50.836;4.430;2023-11-21T08:13:52;76.22;;;46.28;;
27979;SDS011;15315;50.836;4.430;2023-11-21T08:23:54;56.33;;;28.20;;
27979;SDS011;15315;50.836;4.430;2023-11-21T08:33:55;56.58;;;26.02;;
27979;SDS011;15315;50.836;4.430;2023-11-21T08:43:56;59.72;;;26.67;;
27979;SDS011;15315;50.836;4.430;2023-11-21T08:53:58;74.18;;;34.10;;
27979;SDS011;15315;50.836;4.430;2023-11-21T09:04:00;59.90;;;23.73;;
27979;SDS011;15315;50.836;4.430;2023-11-21T09:14:05;58.30;;;25.25;;
27979;SDS011;15315;50.836;4.430;2023-11-21T09:24:06;62.95;;;26.25;;
27979;SDS011;15315;50.836;4.430;2023-11-21T09:34:09;70.88;;;26.25;;
27979;SDS011;15315;50.836;4.430;2023-11-21T09:44:13;57.95;;;23.05;;
27979;SDS011;15315;50.836;4.430;2023-11-21T09:54:16;62.50;;;25.05;;
27979;SDS011;15315;50.836;4.430;2023-11-21T10:04:17;60.25;;;24.02;;
27979;SDS011;15315;50.836;4.430;2023-11-21T10:14:18;52.28;;;22.33;;
27979;SDS011;15315;50.836;4.430;2023-11-21T10:24:21;37.03;;;20.10;;
27979;SDS011;15315;50.836;4.430;2023-11-21T10:34:22;28.70;;;17.25;;
27979;SDS011;15315;50.836;4.430;2023-11-21T10:44:22;31.90;;;17.10;;
27979;SDS011;15315;50.836;4.430;2023-11-21T10:54:24;31.83;;;17.23;;
27979;SDS011;15315;50.836;4.430;2023-11-21T11:04:28;31.70;;;17.13;;
27979;SDS011;15315;50.836;4.430;2023-11-21T11:14:28;31.77;;;17.35;;
27979;SDS011;15315;50.836;4.430;2023-11-21T11:24:36;39.47;;;22.05;;
27979;SDS011;15315;50.836;4.430;2023-11-21T11:35:10;39.67;;;23.20;;
27979;SDS011;15315;50.836;4.430;2023-11-21T11:45:17;39.75;;;22.27;;
27979;SDS011;15315;50.836;4.430;2023-11-21T11:55:20;43.28;;;23.77;;
27979;SDS011;15315;50.836;4.430;2023-11-21T12:05:21;39.05;;;22.40;;
27979;SDS011;15315;50.836;4.430;2023-11-21T12:15:23;37.30;;;22.60;;
27979;SDS011;15315;50.836;4.430;2023-11-21T12:25:25;23.67;;;16.23;;
27979;SDS011;15315;50.836;4.430;2023-11-21T12:35:32;22.33;;;14.27;;
27979;SDS011;15315;50.836;4.430;2023-11-21T12:45:34;20.80;;;13.20;;
27979;SDS011;15315;50.836;4.430;2023-11-21T12:55:34;21.30;;;12.80;;
27979;SDS011;15315;50.836;4.430;2023-11-21T13:05:39;14.77;;;11.98;;
27979;SDS011;15315;50.836;4.430;2023-11-21T13:15:48;22.27;;;12.52;;
27979;SDS011;15315;50.836;4.430;2023-11-21T13:25:50;26.98;;;14.50;;
27979;SDS011;15315;50.836;4.430;2023-11-21T13:35:51;22.98;;;14.50;;
27979;SDS011;15315;50.836;4.430;2023-11-21T13:45:52;21.17;;;14.52;;
27979;SDS011;15315;50.836;4.430;2023-11-21T13:56:15;19.45;;;10.90;;
27979;SDS011;15315;50.836;4.430;2023-11-21T14:06:26;12.23;;;8.43;;
27979;SDS011;15315;50.836;4.430;2023-11-21T14:16:36;12.88;;;7.53;;
27979;SDS011;15315;50.836;4.430;2023-11-21T14:26:37;10.07;;;5.40;;
27979;SDS011;15315;50.836;4.430;2023-11-21T14:36:37;6.15;;;4.35;;
27979;SDS011;15315;50.836;4.430;2023-11-21T14:46:39;8.25;;;4.70;;
27979;SDS011;15315;50.836;4.430;2023-11-21T15:06:45;11.77;;;8.02;;
27979;SDS011;15315;50.836;4.430;2023-11-21T15:16:48;13.05;;;7.35;;
27979;SDS011;15315;50.836;4.430;2023-11-21T15:26:52;13.43;;;8.27;;
27979;SDS011;15315;50.836;4.430;2023-11-21T15:36:52;11.35;;;7.90;;
27979;SDS011;15315;50.836;4.430;2023-11-21T15:46:54;12.32;;;7.60;;
27979;SDS011;15315;50.836;4.430;2023-11-21T15:56:54;13.85;;;8.30;;
27979;SDS011;15315;50.836;4.430;2023-11-21T16:06:59;15.77;;;9.02;;
27979;SDS011;15315;50.836;4.430;2023-11-21T16:17:01;17.33;;;10.68;;
27979;SDS011;15315;50.836;4.430;2023-11-21T16:27:02;22.20;;;12.20;;
27979;SDS011;15315;50.836;4.430;2023-11-21T16:37:05;15.93;;;10.45;;
27979;SDS011;15315;50.836;4.430;2023-11-21T16:47:06;17.58;;;9.55;;
27979;SDS011;15315;50.836;4.430;2023-11-21T16:57:07;15.60;;;9.73;;
27979;SDS011;15315;50.836;4.430;2023-11-21T17:07:08;16.48;;;10.15;;
27979;SDS011;15315;50.836;4.430;2023-11-21T17:17:10;18.00;;;10.77;;
27979;SDS011;15315;50.836;4.430;2023-11-21T17:27:13;17.25;;;10.57;;
27979;SDS011;15315;50.836;4.430;2023-11-21T17:37:13;20.88;;;12.25;;
27979;SDS011;15315;50.836;4.430;2023-11-21T17:47:16;17.42;;;10.90;;
27979;SDS011;15315;50.836;4.430;2023-11-21T17:57:18;17.15;;;10.60;;
27979;SDS011;15315;50.836;4.430;2023-11-21T18:07:19;23.05;;;12.30;;
27979;SDS011;15315;50.836;4.430;2023-11-21T18:17:19;30.77;;;15.20;;
27979;SDS011;15315;50.836;4.430;2023-11-21T18:27:20;28.60;;;16.73;;
27979;SDS011;15315;50.836;4.430;2023-11-21T18:37:27;29.83;;;18.00;;
27979;SDS011;15315;50.836;4.430;2023-11-21T18:47:27;28.75;;;17.20;;
27979;SDS011;15315;50.836;4.430;2023-11-21T18:57:28;27.70;;;16.42;;
27979;SDS011;15315;50.836;4.430;2023-11-21T19:07:28;20.65;;;12.50;;
27979;SDS011;15315;50.836;4.430;2023-11-21T19:17:34;22.70;;;12.48;;
27979;SDS011;15315;50.836;4.430;2023-11-21T19:27:35;25.63;;;14.07;;
27979;SDS011;15315;50.836;4.430;2023-11-21T19:37:35;30.77;;;15.60;;
27979;SDS011;15315;50.836;4.430;2023-11-21T19:47:36;33.53;;;16.85;;
27979;SDS011;15315;50.836;4.430;2023-11-21T19:57:38;31.23;;;17.33;;
27979;SDS011;15315;50.836;4.430;2023-11-21T20:07:40;31.92;;;17.00;;
27979;SDS011;15315;50.836;4.430;2023-11-21T20:17:41;29.85;;;16.50;;
27979;SDS011;15315;50.836;4.430;2023-11-21T20:27:44;26.90;;;16.90;;
27979;SDS011;15315;50.836;4.430;2023-11-21T20:37:46;26.15;;;17.30;;
27979;SDS011;15315;50.836;4.430;2023-11-21T20:47:47;24.00;;;15.82;;
27979;SDS011;15315;50.836;4.430;2023-11-21T20:57:47;22.15;;;15.30;;
27979;SDS011;15315;50.836;4.430;2023-11-21T21:07:49;22.83;;;14.90;;
27979;SDS011;15315;50.836;4.430;2023-11-21T21:17:49;19.42;;;14.15;;
27979;SDS011;15315;50.836;4.430;2023-11-21T21:27:49;26.25;;;16.38;;
27979;SDS011;15315;50.836;4.430;2023-11-21T21:37:50;25.13;;;15.35;;
27979;SDS011;15315;50.836;4.430;2023-11-21T21:47:51;26.17;;;16.98;;
27979;SDS011;15315;50.836;4.430;2023-11-21T21:57:51;26.33;;;18.85;;
27979;SDS011;15315;50.836;4.430;2023-11-21T22:07:51;29.52;;;19.23;;
27979;SDS011;15315;50.836;4.430;2023-11-21T22:17:52;30.58;;;19.23;;
27979;SDS011;15315;50.836;4.430;2023-11-21T22:27:52;32.13;;;19.75;;
27979;SDS011;15315;50.836;4.430;2023-11-21T22:37:53;32.20;;;20.02;;
27979;SDS011;15315;50.836;4.430;2023-11-21T22:47:53;35.60;;;20.60;;
27979;SDS011;15315;50.836;4.430;2023-11-21T22:57:54;33.13;;;20.20;;
27979;SDS011;15315;50.836;4.430;2023-11-21T23:07:54;36.40;;;20.67;;
27979;SDS011;15315;50.836;4.430;2023-11-21T23:17:54;36.65;;;21.23;;
27979;SDS011;15315;50.836;4.430;2023-11-21T23:27:55;33.10;;;20.83;;
27979;SDS011;15315;50.836;4.430;2023-11-21T23:37:55;34.55;;;21.23;;
27979;SDS011;15315;50.836;4.430;2023-11-21T23:47:55;32.45;;;20.50;;
27979;SDS011;15315;50.836;4.430;2023-11-21T23:57:56;34.80;;;20.85;;
